Terminal Aerodrome Forecast
Issued by NWS Pueblo, CO

Home | Current Version | Previous Version | Text Only | Print | Product List | Glossary On
Versions: 1 2 3 4 5 6 7 8 9 10 11 12 13 14 15 16 17 18 19 20 21 22 23 24 25 26
000
FTUS45 KPUB 230521
TAFALS
TAF
KALS 230521Z 2306/2406 19014KT P6SM SCT060 BKN110
     FM231500 20016G28KT P6SM SCT090 BKN150
     FM232000 23020G38KT P6SM VCSH SCT050 BKN100
     FM240100 22015G25KT P6SM FEW150 BKN200
     FM240300 20012KT P6SM BKN200=

USA.gov is the U.S. government's official web portal to all federal, state and local government web resources and services.